Aérodrome :
LOGIN :

S'inscrire | Disclaimer

   EN    FR    IT 

 










Légende :    VFR   VFR Marginal   IFR   IFR Intensif   IFR Très Intensif
Visi : 
Plafond : 
>= 8 km
>= 3000ft
5 à 8 km
1000 à 3000 ft
1500m à 5 km
500 à 1000 ft
800 à 1500m
200 à 500 ft
< 800m
< 200 ft
Symboles :   Orages  Brouillard  Fortes neiges  Fortes précipitations  Vent > 20 kt
SIGMETs :   Divers  Orages  Givrage  Turbulence  Onde Orograph.  Cendres Volcan.






- Altitude de l'aérodrome : 424 ft
- Code IATA : QGY


LHPR - Györ Per

DERNIER METAR :
  • 120515Z 10007KT CAVOK 05/05 Q1011

METARs EXPIRÉS :
  • 120445Z AUTO VRB01KT CAVOK 06/05 Q1011
  • 120415Z AUTO 09005KT CAVOK 06/05 Q1011
  • 120345Z AUTO 07005KT 020V100 CAVOK 06/05 Q1011
  • 120315Z AUTO 08004KT 050V120 CAVOK 07/05 Q1011
  • 120245Z AUTO 10005KT 080V160 CAVOK 07/05 Q1012

TAF TAF LHPR
Valide du 12 à 06h jusqu'au 12 à 15h UTC


120515Z 1206/1215 VRB02KT CAVOK
PROB30
TEMPO 1206/1208 5000 BR
BECMG 1208/1210 12010KT
BECMG 1210/1212 7000 -RA SCT015 BKN025 OVC060
TEMPO 1212/1215 4000 RA BR BKN010 OVC025



MET'MAP, la Météo Aéronautique d'un coup d'oeil ! - Copyright ORBIFLY Décembre 2007 - Disclaimer

ORBIFLY MET'MAP TEAM :

Programmation & Développement : Alexandra Zaïnal
Conception & Développement : Baudouin d'Aumeries
Co-Programmation & Développement : Marc-Olivier Méhu
Soutien technique & logistique : Manuel Goepfert

Contact : metmap@orbifly.com




SOURCES & CREDITS :

   NOAA